Flight Number: EUR2104 Duration: 1:15
Departure: Hamburg Fuhlsbuettel (EDDH) at 08:00 Distance: 324 Nm
Arrival: Munich Int'l (EDDM) at 09:15 Equipment: DHC8

Weather Information
Hamburg-Fuhlsbuettel, Germany (EDDH) 53-38N 010-00E 15M Sep 21, 2017 - 09:50 AM EDT / 2017.09.21 1350 UTC
Wind: from the SW (230 degrees) at 6 MPH (5 KT) (direction variable):0
Visibility: greater than 7 mile(s):0
Sky conditions: mostly clear Temperature: 64 F (18 C) Dew Point: 51 F (11 C) Relative Humidity: 63% Pressure (altimeter): 30.12 in. Hg (1020 hPa)
ob: EDDH 211350Z 23005KT 190V280 9999 FEW035 18/11 Q1020 NOSIG cycle: 14
Sunrise: 05:09 Sunset: 17:16 (UTC)

Munchen, Germany (EDDM) 48-21N 011-47E Sep 21, 2017 - 09:50 AM EDT / 2017.09.21 1350 UTC
Wind: from the SE (130 degrees) at 5 MPH (4 KT) (direction variable):0
Visibility: greater than 7 mile(s):0
Sky conditions: partly cloudy Temperature: 60 F (16 C) Dew Point: 44 F (7 C) Relative Humidity: 55% Pressure (altimeter): 30.15 in. Hg (1021 hPa)
ob: EDDM 211350Z 13004KT 080V190 9999 FEW040 SCT060 16/07 Q1021 NOSIG cycle: 14
Sunrise: 05:02 Sunset: 17:08 (UTC)

TAF:2017/09/21 12:27 TAF EDDM 211100Z 2112/2218 VRB03KT 9999 SCT020 BECMG 2123/2201 2000 BCFG TEMPO 2202/2208 0400 FG VV001 BECMG 2208/2210 9999

Previous Pireps for this route
Date Aircraft Flight time Fuel used Landing rate On time
2012-08-12DHC81.1315660Yes
2014-12-24DHC81.327522-162No
2017-01-10B73701.247868-452Charter
(pireps marked green are flown by you)

Route map